sensor_id;sensor_type;location;lat;lon;timestamp;pressure;altitude;pressure_sealevel;temperature;humidity
18201;BME280;9226;47.858;9.594;2024-03-02T00:02:21;94091.44;;;6.80;81.87
18201;BME280;9226;47.858;9.594;2024-03-02T00:04:46;94094.34;;;6.77;81.68
18201;BME280;9226;47.858;9.594;2024-03-02T00:07:14;94100.75;;;6.74;81.56
18201;BME280;9226;47.858;9.594;2024-03-02T00:09:40;94104.34;;;6.73;81.79
18201;BME280;9226;47.858;9.594;2024-03-02T00:12:05;94109.31;;;6.66;81.89
18201;BME280;9226;47.858;9.594;2024-03-02T00:14:31;94109.31;;;6.66;81.71
18201;BME280;9226;47.858;9.594;2024-03-02T00:16:57;94104.88;;;6.67;81.56
18201;BME280;9226;47.858;9.594;2024-03-02T00:19:22;94114.59;;;6.66;81.50
18201;BME280;9226;47.858;9.594;2024-03-02T00:21:48;94114.84;;;6.63;81.56
18201;BME280;9226;47.858;9.594;2024-03-02T00:24:34;94113.84;;;6.55;82.01
18201;BME280;9226;47.858;9.594;2024-03-02T00:26:59;94108.44;;;6.56;81.87
18201;BME280;9226;47.858;9.594;2024-03-02T00:29:25;94107.75;;;6.54;82.23
18201;BME280;9226;47.858;9.594;2024-03-02T00:31:50;94110.63;;;6.51;82.55
18201;BME280;9226;47.858;9.594;2024-03-02T00:34:17;94109.56;;;6.54;82.82
18201;BME280;9226;47.858;9.594;2024-03-02T00:36:43;94106.78;;;6.55;83.00
18201;BME280;9226;47.858;9.594;2024-03-02T00:39:12;94108.44;;;6.56;83.48
18201;BME280;9226;47.858;9.594;2024-03-02T00:41:40;94102.50;;;6.64;82.67
18201;BME280;9226;47.858;9.594;2024-03-02T00:44:09;94103.28;;;6.55;84.13
18201;BME280;9226;47.858;9.594;2024-03-02T00:46:40;94096.78;;;6.49;84.38
18201;BME280;9226;47.858;9.594;2024-03-02T00:49:18;94095.63;;;6.42;85.80
18201;BME280;9226;47.858;9.594;2024-03-02T00:51:47;94098.97;;;6.44;84.97
18201;BME280;9226;47.858;9.594;2024-03-02T00:54:22;94089.00;;;6.47;83.86
18201;BME280;9226;47.858;9.594;2024-03-02T00:56:49;94094.66;;;6.43;84.85
18201;BME280;9226;47.858;9.594;2024-03-02T00:59:15;94089.66;;;6.40;85.45
18201;BME280;9226;47.858;9.594;2024-03-02T01:01:40;94102.31;;;6.46;84.05
18201;BME280;9226;47.858;9.594;2024-03-02T01:04:07;94101.09;;;6.50;83.80
18201;BME280;9226;47.858;9.594;2024-03-02T01:06:32;94097.72;;;6.48;83.95
18201;BME280;9226;47.858;9.594;2024-03-02T01:08:58;94100.63;;;6.45;83.90
18201;BME280;9226;47.858;9.594;2024-03-02T01:11:23;94101.50;;;6.45;83.64
18201;BME280;9226;47.858;9.594;2024-03-02T01:13:49;94101.50;;;6.45;83.38
18201;BME280;9226;47.858;9.594;2024-03-02T01:16:14;94100.63;;;6.45;83.62
18201;BME280;9226;47.858;9.594;2024-03-02T01:18:41;94107.84;;;6.43;83.51
18201;BME280;9226;47.858;9.594;2024-03-02T01:21:07;94111.56;;;6.40;83.39
18201;BME280;9226;47.858;9.594;2024-03-02T01:23:32;94112.81;;;6.36;83.60
18201;BME280;9226;47.858;9.594;2024-03-02T01:25:58;94119.03;;;6.35;83.67
18201;BME280;9226;47.858;9.594;2024-03-02T01:28:23;94118.91;;;6.37;83.70
18201;BME280;9226;47.858;9.594;2024-03-02T01:30:49;94111.44;;;6.42;83.26
18201;BME280;9226;47.858;9.594;2024-03-02T01:33:16;94117.69;;;6.41;83.26
18201;BME280;9226;47.858;9.594;2024-03-02T01:35:41;94121.84;;;6.43;83.49
18201;BME280;9226;47.858;9.594;2024-03-02T01:38:06;94118.94;;;6.46;82.89
18201;BME280;9226;47.858;9.594;2024-03-02T01:40:36;94118.28;;;6.54;82.14
18201;BME280;9226;47.858;9.594;2024-03-02T01:43:02;94120.34;;;6.50;82.30
18201;BME280;9226;47.858;9.594;2024-03-02T01:45:28;94128.94;;;6.52;81.72
18201;BME280;9226;47.858;9.594;2024-03-02T01:47:53;94127.69;;;6.47;81.93
18201;BME280;9226;47.858;9.594;2024-03-02T01:50:29;94126.28;;;6.43;81.92
18201;BME280;9226;47.858;9.594;2024-03-02T01:52:56;94126.16;;;6.44;81.84
18201;BME280;9226;47.858;9.594;2024-03-02T01:55:22;94129.59;;;6.45;81.44
18201;BME280;9226;47.858;9.594;2024-03-02T01:57:48;94139.03;;;6.38;81.92
18201;BME280;9226;47.858;9.594;2024-03-02T02:00:14;94131.78;;;6.30;82.32
18201;BME280;9226;47.858;9.594;2024-03-02T02:02:40;94126.63;;;6.28;82.52
18201;BME280;9226;47.858;9.594;2024-03-02T02:05:06;94130.94;;;6.29;82.56
18201;BME280;9226;47.858;9.594;2024-03-02T02:07:31;94134.00;;;6.34;82.31
18201;BME280;9226;47.858;9.594;2024-03-02T02:09:57;94128.88;;;6.33;82.34
18201;BME280;9226;47.858;9.594;2024-03-02T02:12:23;94126.13;;;6.34;82.52
18201;BME280;9226;47.858;9.594;2024-03-02T02:14:49;94129.69;;;6.33;82.86
18201;BME280;9226;47.858;9.594;2024-03-02T02:17:15;94126.94;;;6.35;82.96
18201;BME280;9226;47.858;9.594;2024-03-02T02:19:41;94125.84;;;6.38;82.82
18201;BME280;9226;47.858;9.594;2024-03-02T02:22:07;94126.53;;;6.40;82.90
18201;BME280;9226;47.858;9.594;2024-03-02T02:24:32;94126.13;;;6.34;83.48
18201;BME280;9226;47.858;9.594;2024-03-02T02:26:57;94130.25;;;6.37;83.05
18201;BME280;9226;47.858;9.594;2024-03-02T02:29:22;94121.53;;;6.37;83.07
18201;BME280;9226;47.858;9.594;2024-03-02T02:31:48;94129.31;;;6.38;83.42
18201;BME280;9226;47.858;9.594;2024-03-02T02:34:14;94123.91;;;6.40;83.20
18201;BME280;9226;47.858;9.594;2024-03-02T02:36:40;94124.59;;;6.42;82.95
18201;BME280;9226;47.858;9.594;2024-03-02T02:39:07;94117.44;;;6.44;82.67
18201;BME280;9226;47.858;9.594;2024-03-02T02:41:36;94116.97;;;6.39;82.80
18201;BME280;9226;47.858;9.594;2024-03-02T02:44:01;94118.63;;;6.40;82.83
18201;BME280;9226;47.858;9.594;2024-03-02T02:46:26;94113.38;;;6.40;82.71
18201;BME280;9226;47.858;9.594;2024-03-02T02:48:52;94114.31;;;6.39;82.93
18201;BME280;9226;47.858;9.594;2024-03-02T02:51:18;94117.81;;;6.39;82.89
18201;BME280;9226;47.858;9.594;2024-03-02T02:53:43;94119.84;;;6.36;83.14
18201;BME280;9226;47.858;9.594;2024-03-02T02:56:09;94117.47;;;6.32;83.97
18201;BME280;9226;47.858;9.594;2024-03-02T02:58:34;94113.50;;;6.38;83.18
18201;BME280;9226;47.858;9.594;2024-03-02T03:01:00;94110.00;;;6.28;83.58
18201;BME280;9226;47.858;9.594;2024-03-02T03:03:26;94104.47;;;6.31;83.23
18201;BME280;9226;47.858;9.594;2024-03-02T03:05:51;94111.66;;;6.29;82.93
18201;BME280;9226;47.858;9.594;2024-03-02T03:08:16;94102.16;;;6.16;83.84
18201;BME280;9226;47.858;9.594;2024-03-02T03:10:42;94113.09;;;6.12;83.84
18201;BME280;9226;47.858;9.594;2024-03-02T03:13:08;94102.38;;;6.04;83.75
18201;BME280;9226;47.858;9.594;2024-03-02T03:15:36;94116.66;;;6.01;83.83
18201;BME280;9226;47.858;9.594;2024-03-02T03:18:03;94104.81;;;5.95;84.25
18201;BME280;9226;47.858;9.594;2024-03-02T03:20:29;94114.41;;;5.96;84.04
18201;BME280;9226;47.858;9.594;2024-03-02T03:22:54;94101.25;;;5.96;83.74
18201;BME280;9226;47.858;9.594;2024-03-02T03:25:19;94101.03;;;5.88;84.03
18201;BME280;9226;47.858;9.594;2024-03-02T03:27:45;94102.28;;;5.94;83.34
18201;BME280;9226;47.858;9.594;2024-03-02T03:30:11;94111.94;;;5.84;83.87
18201;BME280;9226;47.858;9.594;2024-03-02T03:32:36;94108.19;;;5.86;83.42
18201;BME280;9226;47.858;9.594;2024-03-02T03:35:03;94121.38;;;5.86;83.28
18201;BME280;9226;47.858;9.594;2024-03-02T03:37:29;94123.03;;;5.87;83.33
18201;BME280;9226;47.858;9.594;2024-03-02T03:39:58;94120.66;;;5.84;83.65
18201;BME280;9226;47.858;9.594;2024-03-02T03:42:23;94123.03;;;5.87;83.36
18201;BME280;9226;47.858;9.594;2024-03-02T03:44:49;94121.63;;;5.83;84.03
18201;BME280;9226;47.858;9.594;2024-03-02T03:47:14;94113.03;;;5.81;84.12
18201;BME280;9226;47.858;9.594;2024-03-02T03:49:39;94117.09;;;5.85;83.98
18201;BME280;9226;47.858;9.594;2024-03-02T03:52:05;94117.78;;;5.87;83.81
18201;BME280;9226;47.858;9.594;2024-03-02T03:54:30;94120.41;;;5.87;84.05
18201;BME280;9226;47.858;9.594;2024-03-02T03:56:55;94112.78;;;5.84;84.40
18201;BME280;9226;47.858;9.594;2024-03-02T03:59:21;94120.41;;;5.87;84.13
18201;BME280;9226;47.858;9.594;2024-03-02T04:01:46;94122.78;;;5.90;83.82
18201;BME280;9226;47.858;9.594;2024-03-02T04:04:12;94126.38;;;5.89;84.10
18201;BME280;9226;47.858;9.594;2024-03-02T04:06:37;94124.44;;;5.91;83.81
18201;BME280;9226;47.858;9.594;2024-03-02T04:09:02;94118.78;;;5.96;83.64
18201;BME280;9226;47.858;9.594;2024-03-02T04:11:29;94124.69;;;6.00;83.03
18201;BME280;9226;47.858;9.594;2024-03-02T04:13:55;94126.69;;;5.96;83.29
18201;BME280;9226;47.858;9.594;2024-03-02T04:16:21;94132.94;;;5.95;83.48
18201;BME280;9226;47.858;9.594;2024-03-02T04:18:46;94135.69;;;5.93;83.87
18201;BME280;9226;47.858;9.594;2024-03-02T04:21:12;94128.06;;;5.90;84.17
18201;BME280;9226;47.858;9.594;2024-03-02T04:23:37;94129.78;;;5.80;85.14
18201;BME280;9226;47.858;9.594;2024-03-02T04:26:02;94133.31;;;5.90;84.37
18201;BME280;9226;47.858;9.594;2024-03-02T04:28:28;94128.88;;;5.91;84.31
18201;BME280;9226;47.858;9.594;2024-03-02T04:30:53;94127.47;;;5.87;84.57
18201;BME280;9226;47.858;9.594;2024-03-02T04:33:18;94127.94;;;5.92;84.54
18201;BME280;9226;47.858;9.594;2024-03-02T04:35:44;94127.56;;;5.96;84.17
18201;BME280;9226;47.858;9.594;2024-03-02T04:38:09;94132.34;;;5.91;84.89
18201;BME280;9226;47.858;9.594;2024-03-02T04:40:34;94129.22;;;5.97;84.50
18201;BME280;9226;47.858;9.594;2024-03-02T04:43:00;94117.97;;;5.95;84.76
18201;BME280;9226;47.858;9.594;2024-03-02T04:45:25;94125.38;;;6.02;83.77
18201;BME280;9226;47.858;9.594;2024-03-02T04:47:51;94119.53;;;5.98;83.92
18201;BME280;9226;47.858;9.594;2024-03-02T04:50:16;94125.41;;;5.90;84.56
18201;BME280;9226;47.858;9.594;2024-03-02T04:52:41;94124.44;;;5.91;84.24
18201;BME280;9226;47.858;9.594;2024-03-02T04:55:07;94122.09;;;5.88;84.49
18201;BME280;9226;47.858;9.594;2024-03-02T04:57:43;94126.13;;;5.92;83.64
18201;BME280;9226;47.858;9.594;2024-03-02T05:00:09;94123.88;;;5.88;84.38
18201;BME280;9226;47.858;9.594;2024-03-02T05:02:35;94123.94;;;5.76;85.21
18201;BME280;9226;47.858;9.594;2024-03-02T05:05:00;94132.28;;;5.82;84.73
18201;BME280;9226;47.858;9.594;2024-03-02T05:07:26;94132.78;;;5.75;85.60
18201;BME280;9226;47.858;9.594;2024-03-02T05:09:51;94135.75;;;5.82;85.22
18201;BME280;9226;47.858;9.594;2024-03-02T05:12:16;94135.25;;;5.88;84.68
18201;BME280;9226;47.858;9.594;2024-03-02T05:15:06;94136.06;;;5.89;85.43
18201;BME280;9226;47.858;9.594;2024-03-02T05:17:32;94136.28;;;5.97;85.69
18201;BME280;9226;47.858;9.594;2024-03-02T05:19:57;94132.84;;;5.96;86.38
18201;BME280;9226;47.858;9.594;2024-03-02T05:22:23;94141.31;;;6.00;86.57
18201;BME280;9226;47.858;9.594;2024-03-02T05:24:48;94147.59;;;6.09;85.90
18201;BME280;9226;47.858;9.594;2024-03-02T05:27:13;94146.75;;;6.08;87.06
18201;BME280;9226;47.858;9.594;2024-03-02T05:29:39;94150.16;;;6.20;85.90
18201;BME280;9226;47.858;9.594;2024-03-02T05:32:05;94147.72;;;6.28;85.75
18201;BME280;9226;47.858;9.594;2024-03-02T05:34:30;94151.56;;;6.24;86.73
18201;BME280;9226;47.858;9.594;2024-03-02T05:36:58;94154.19;;;6.24;86.63
18201;BME280;9226;47.858;9.594;2024-03-02T05:39:23;94153.50;;;6.22;87.33
18201;BME280;9226;47.858;9.594;2024-03-02T05:41:48;94155.44;;;6.20;87.58
18201;BME280;9226;47.858;9.594;2024-03-02T05:44:13;94157.34;;;6.18;87.67
18201;BME280;9226;47.858;9.594;2024-03-02T05:46:40;94154.31;;;6.23;87.51
18201;BME280;9226;47.858;9.594;2024-03-02T05:49:06;94153.50;;;6.22;87.92
18201;BME280;9226;47.858;9.594;2024-03-02T05:51:35;94159.06;;;6.29;87.46
18201;BME280;9226;47.858;9.594;2024-03-02T05:54:00;94159.00;;;6.19;88.72
18201;BME280;9226;47.858;9.594;2024-03-02T05:56:25;94156.81;;;6.24;88.08
18201;BME280;9226;47.858;9.594;2024-03-02T05:58:50;94157.16;;;6.31;87.55
18201;BME280;9226;47.858;9.594;2024-03-02T06:01:19;94152.72;;;6.31;87.90
18201;BME280;9226;47.858;9.594;2024-03-02T06:03:44;94159.50;;;6.34;87.55
18201;BME280;9226;47.858;9.594;2024-03-02T06:06:10;94163.56;;;6.38;87.36
18201;BME280;9226;47.858;9.594;2024-03-02T06:08:35;94149.38;;;6.29;88.18
18201;BME280;9226;47.858;9.594;2024-03-02T06:11:01;94161.66;;;6.19;89.62
18201;BME280;9226;47.858;9.594;2024-03-02T06:13:26;94156.06;;;6.12;90.06
18201;BME280;9226;47.858;9.594;2024-03-02T06:15:52;94160.81;;;5.97;91.29
18201;BME280;9226;47.858;9.594;2024-03-02T06:18:18;94155.53;;;5.97;91.00
18201;BME280;9226;47.858;9.594;2024-03-02T06:20:43;94161.72;;;6.08;89.79
18201;BME280;9226;47.858;9.594;2024-03-02T06:23:08;94154.84;;;6.16;88.72
18201;BME280;9226;47.858;9.594;2024-03-02T06:25:34;94158.53;;;5.93;89.81
18201;BME280;9226;47.858;9.594;2024-03-02T06:27:59;94163.91;;;6.03;89.41
18201;BME280;9226;47.858;9.594;2024-03-02T06:30:25;94163.13;;;6.12;88.44
18201;BME280;9226;47.858;9.594;2024-03-02T06:32:51;94162.47;;;6.20;88.21
18201;BME280;9226;47.858;9.594;2024-03-02T06:35:16;94155.09;;;6.13;89.27
18201;BME280;9226;47.858;9.594;2024-03-02T06:37:42;94158.44;;;6.15;89.54
18201;BME280;9226;47.858;9.594;2024-03-02T06:40:07;94158.25;;;6.07;90.15
18201;BME280;9226;47.858;9.594;2024-03-02T06:42:33;94161.72;;;6.08;89.96
18201;BME280;9226;47.858;9.594;2024-03-02T06:44:59;94160.91;;;6.07;90.01
18201;BME280;9226;47.858;9.594;2024-03-02T06:47:25;94162.59;;;6.18;88.98
18201;BME280;9226;47.858;9.594;2024-03-02T06:49:50;94157.06;;;6.21;89.07
18201;BME280;9226;47.858;9.594;2024-03-02T06:52:16;94164.34;;;6.29;88.82
18201;BME280;9226;47.858;9.594;2024-03-02T06:54:41;94171.16;;;6.31;88.59
18201;BME280;9226;47.858;9.594;2024-03-02T06:57:07;94162.69;;;6.28;88.97
18201;BME280;9226;47.858;9.594;2024-03-02T06:59:32;94177.50;;;6.29;88.86
18201;BME280;9226;47.858;9.594;2024-03-02T07:01:59;94173.28;;;6.38;88.42
18201;BME280;9226;47.858;9.594;2024-03-02T07:04:25;94164.72;;;6.45;88.50
18201;BME280;9226;47.858;9.594;2024-03-02T07:06:50;94166.66;;;6.53;88.60
18201;BME280;9226;47.858;9.594;2024-03-02T07:09:16;94167.81;;;6.60;88.70
18201;BME280;9226;47.858;9.594;2024-03-02T07:11:42;94170.75;;;6.67;88.37
18201;BME280;9226;47.858;9.594;2024-03-02T07:14:07;94170.66;;;6.78;87.76
18201;BME280;9226;47.858;9.594;2024-03-02T07:16:32;94177.63;;;6.89;87.42
18201;BME280;9226;47.858;9.594;2024-03-02T07:18:59;94170.88;;;6.96;86.95
18201;BME280;9226;47.858;9.594;2024-03-02T07:21:26;94180.16;;;7.00;87.33
18201;BME280;9226;47.858;9.594;2024-03-02T07:23:52;94180.78;;;7.14;86.98
18201;BME280;9226;47.858;9.594;2024-03-02T07:26:17;94180.66;;;7.15;87.21
18201;BME280;9226;47.858;9.594;2024-03-02T07:28:45;94169.16;;;7.26;87.00
18201;BME280;9226;47.858;9.594;2024-03-02T07:31:11;94171.41;;;7.40;86.63
18201;BME280;9226;47.858;9.594;2024-03-02T07:33:36;94171.94;;;7.44;86.80
18201;BME280;9226;47.858;9.594;2024-03-02T07:36:02;94175.13;;;7.48;86.66
18201;BME280;9226;47.858;9.594;2024-03-02T07:38:28;94179.03;;;7.43;86.86
18201;BME280;9226;47.858;9.594;2024-03-02T07:40:54;94178.50;;;7.59;85.85
18201;BME280;9226;47.858;9.594;2024-03-02T07:43:20;94173.91;;;7.71;85.52
18201;BME280;9226;47.858;9.594;2024-03-02T07:45:46;94170.31;;;7.82;84.92
18201;BME280;9226;47.858;9.594;2024-03-02T07:48:12;94176.69;;;7.79;84.83
18201;BME280;9226;47.858;9.594;2024-03-02T07:50:37;94172.25;;;7.90;84.46
18201;BME280;9226;47.858;9.594;2024-03-02T07:53:04;94174.59;;;8.03;84.10
18201;BME280;9226;47.858;9.594;2024-03-02T07:55:30;94171.53;;;8.07;83.74
18201;BME280;9226;47.858;9.594;2024-03-02T07:57:56;94175.28;;;8.14;83.51
18201;BME280;9226;47.858;9.594;2024-03-02T08:00:22;94171.94;;;8.32;83.30
18201;BME280;9226;47.858;9.594;2024-03-02T08:02:48;94167.31;;;8.34;82.99
18201;BME280;9226;47.858;9.594;2024-03-02T08:05:14;94169.28;;;8.32;82.86
18201;BME280;9226;47.858;9.594;2024-03-02T08:07:40;94168.56;;;8.49;82.21
18201;BME280;9226;47.858;9.594;2024-03-02T08:10:06;94164.22;;;8.58;81.08
18201;BME280;9226;47.858;9.594;2024-03-02T08:12:32;94167.19;;;8.45;80.91
18201;BME280;9226;47.858;9.594;2024-03-02T08:14:57;94165.78;;;8.41;80.32
18201;BME280;9226;47.858;9.594;2024-03-02T08:17:22;94159.69;;;8.31;80.92
18201;BME280;9226;47.858;9.594;2024-03-02T08:19:48;94160.50;;;8.41;80.29
18201;BME280;9226;47.858;9.594;2024-03-02T08:22:14;94157.00;;;8.50;79.88
18201;BME280;9226;47.858;9.594;2024-03-02T08:24:40;94151.56;;;8.62;79.95
18201;BME280;9226;47.858;9.594;2024-03-02T08:27:06;94156.00;;;8.61;79.81
18201;BME280;9226;47.858;9.594;2024-03-02T08:29:31;94153.81;;;8.47;79.35
18201;BME280;9226;47.858;9.594;2024-03-02T08:31:57;94152.09;;;8.65;80.22
18201;BME280;9226;47.858;9.594;2024-03-02T08:34:22;94159.19;;;8.65;79.18
18201;BME280;9226;47.858;9.594;2024-03-02T08:36:48;94156.53;;;8.65;80.40
18201;BME280;9226;47.858;9.594;2024-03-02T08:39:13;94149.28;;;8.77;79.56
18201;BME280;9226;47.858;9.594;2024-03-02T08:41:44;94153.69;;;8.86;79.42
18201;BME280;9226;47.858;9.594;2024-03-02T08:44:09;94141.91;;;9.08;79.25
18201;BME280;9226;47.858;9.594;2024-03-02T08:46:35;94141.59;;;9.11;79.61
18201;BME280;9226;47.858;9.594;2024-03-02T08:49:00;94141.91;;;9.26;79.61
18201;BME280;9226;47.858;9.594;2024-03-02T08:51:25;94143.59;;;9.45;78.83
18201;BME280;9226;47.858;9.594;2024-03-02T08:53:51;94137.03;;;9.67;78.30
18201;BME280;9226;47.858;9.594;2024-03-02T08:56:16;94140.53;;;9.86;77.57
18201;BME280;9226;47.858;9.594;2024-03-02T08:58:43;94136.41;;;10.09;76.70
18201;BME280;9226;47.858;9.594;2024-03-02T09:01:09;94131.72;;;10.03;76.73
18201;BME280;9226;47.858;9.594;2024-03-02T09:03:34;94136.00;;;10.22;76.50
18201;BME280;9226;47.858;9.594;2024-03-02T09:06:00;94129.59;;;10.51;75.76
18201;BME280;9226;47.858;9.594;2024-03-02T09:08:26;94131.66;;;10.65;75.44
18201;BME280;9226;47.858;9.594;2024-03-02T09:10:51;94132.78;;;10.89;74.74
18201;BME280;9226;47.858;9.594;2024-03-02T09:13:17;94134.88;;;11.12;73.83
18201;BME280;9226;47.858;9.594;2024-03-02T09:15:42;94129.53;;;11.54;74.54
18201;BME280;9226;47.858;9.594;2024-03-02T09:18:09;94124.78;;;11.99;73.94
18201;BME280;9226;47.858;9.594;2024-03-02T09:20:35;94123.59;;;13.07;70.66
18201;BME280;9226;47.858;9.594;2024-03-02T09:23:00;94119.50;;;13.90;67.39
18201;BME280;9226;47.858;9.594;2024-03-02T09:25:25;94112.09;;;14.62;64.83
18201;BME280;9226;47.858;9.594;2024-03-02T09:27:51;94115.50;;;15.67;59.57
18201;BME280;9226;47.858;9.594;2024-03-02T09:30:16;94104.44;;;16.85;59.00
18201;BME280;9226;47.858;9.594;2024-03-02T09:32:42;94106.66;;;17.51;54.42
18201;BME280;9226;47.858;9.594;2024-03-02T09:35:07;94108.13;;;18.22;50.73
18201;BME280;9226;47.858;9.594;2024-03-02T09:37:33;94118.03;;;19.08;48.23
18201;BME280;9226;47.858;9.594;2024-03-02T09:39:58;94112.19;;;19.90;46.11
18201;BME280;9226;47.858;9.594;2024-03-02T09:42:24;94111.66;;;21.21;46.81
18201;BME280;9226;47.858;9.594;2024-03-02T09:44:51;94107.63;;;22.46;45.13
18201;BME280;9226;47.858;9.594;2024-03-02T09:47:17;94112.31;;;23.17;41.20
18201;BME280;9226;47.858;9.594;2024-03-02T09:49:42;94102.31;;;23.17;39.21
18201;BME280;9226;47.858;9.594;2024-03-02T09:52:10;94110.38;;;24.17;39.01
18201;BME280;9226;47.858;9.594;2024-03-02T09:54:35;94100.91;;;24.48;37.27
18201;BME280;9226;47.858;9.594;2024-03-02T09:57:01;94097.16;;;24.66;36.95
18201;BME280;9226;47.858;9.594;2024-03-02T09:59:27;94090.94;;;25.56;36.06
18201;BME280;9226;47.858;9.594;2024-03-02T10:02:01;94098.25;;;24.99;34.92
18201;BME280;9226;47.858;9.594;2024-03-02T10:04:28;94089.91;;;24.55;35.41
18201;BME280;9226;47.858;9.594;2024-03-02T10:07:15;94086.47;;;24.93;36.76
18201;BME280;9226;47.858;9.594;2024-03-02T10:09:42;94094.53;;;25.05;34.14
18201;BME280;9226;47.858;9.594;2024-03-02T10:12:09;94082.22;;;25.54;34.59
18201;BME280;9226;47.858;9.594;2024-03-02T10:14:34;94071.34;;;25.76;34.06
18201;BME280;9226;47.858;9.594;2024-03-02T10:17:04;94074.38;;;26.24;34.15
18201;BME280;9226;47.858;9.594;2024-03-02T10:19:30;94064.25;;;25.70;33.07
18201;BME280;9226;47.858;9.594;2024-03-02T10:22:01;94064.25;;;25.48;32.75
18201;BME280;9226;47.858;9.594;2024-03-02T10:24:27;94057.16;;;25.46;35.14
18201;BME280;9226;47.858;9.594;2024-03-02T10:26:53;94054.75;;;25.72;33.27
18201;BME280;9226;47.858;9.594;2024-03-02T10:29:19;94055.69;;;24.83;33.12
18201;BME280;9226;47.858;9.594;2024-03-02T10:31:45;94049.22;;;25.62;33.40
18201;BME280;9226;47.858;9.594;2024-03-02T10:34:12;94046.03;;;25.48;33.97
18201;BME280;9226;47.858;9.594;2024-03-02T10:36:41;94035.94;;;25.43;31.60
18201;BME280;9226;47.858;9.594;2024-03-02T10:39:08;94033.59;;;25.74;30.81
18201;BME280;9226;47.858;9.594;2024-03-02T10:41:34;94040.63;;;26.20;31.42
18201;BME280;9226;47.858;9.594;2024-03-02T10:44:05;94033.81;;;25.95;30.62
18201;BME280;9226;47.858;9.594;2024-03-02T10:46:32;94019.16;;;25.96;31.61
18201;BME280;9226;47.858;9.594;2024-03-02T10:49:01;94023.25;;;26.21;30.76
18201;BME280;9226;47.858;9.594;2024-03-02T10:51:28;94015.34;;;26.51;31.12
18201;BME280;9226;47.858;9.594;2024-03-02T10:53:57;94008.50;;;26.71;31.98
18201;BME280;9226;47.858;9.594;2024-03-02T10:56:30;94007.91;;;26.36;30.85
18201;BME280;9226;47.858;9.594;2024-03-02T10:59:03;94006.94;;;25.71;31.26
18201;BME280;9226;47.858;9.594;2024-03-02T11:01:33;94010.31;;;25.83;32.09
18201;BME280;9226;47.858;9.594;2024-03-02T11:04:02;93990.31;;;25.68;31.90
18201;BME280;9226;47.858;9.594;2024-03-02T11:06:28;93989.06;;;25.53;32.78
18201;BME280;9226;47.858;9.594;2024-03-02T11:08:55;93991.53;;;25.55;31.57
18201;BME280;9226;47.858;9.594;2024-03-02T11:11:28;93979.44;;;25.23;31.35
18201;BME280;9226;47.858;9.594;2024-03-02T11:13:56;93982.41;;;25.22;31.38
18201;BME280;9226;47.858;9.594;2024-03-02T11:18:53;93975.75;;;24.90;32.69
18201;BME280;9226;47.858;9.594;2024-03-02T11:21:18;93975.88;;;25.18;32.40
18201;BME280;9226;47.858;9.594;2024-03-02T11:23:44;93972.56;;;25.16;32.48
18201;BME280;9226;47.858;9.594;2024-03-02T11:26:19;93960.53;;;25.06;33.28
18201;BME280;9226;47.858;9.594;2024-03-02T11:28:45;93961.13;;;24.91;33.47
18201;BME280;9226;47.858;9.594;2024-03-02T11:31:11;93957.28;;;25.09;33.35
18201;BME280;9226;47.858;9.594;2024-03-02T11:33:36;93957.75;;;24.62;34.16
18201;BME280;9226;47.858;9.594;2024-03-02T11:36:02;93958.63;;;24.68;33.56
18201;BME280;9226;47.858;9.594;2024-03-02T11:38:30;93945.88;;;24.68;34.11
18201;BME280;9226;47.858;9.594;2024-03-02T11:40:56;93937.03;;;24.56;33.85
18201;BME280;9226;47.858;9.594;2024-03-02T11:43:21;93939.63;;;24.51;33.86
18201;BME280;9226;47.858;9.594;2024-03-02T11:45:46;93934.16;;;24.29;33.48
18201;BME280;9226;47.858;9.594;2024-03-02T11:48:15;93930.47;;;24.18;34.19
18201;BME280;9226;47.858;9.594;2024-03-02T11:50:49;93930.00;;;23.75;34.11
18201;BME280;9226;47.858;9.594;2024-03-02T11:53:15;93927.44;;;23.40;34.83
18201;BME280;9226;47.858;9.594;2024-03-02T11:55:41;93930.72;;;23.42;34.00
18201;BME280;9226;47.858;9.594;2024-03-02T11:58:11;93924.41;;;22.84;34.28
18201;BME280;9226;47.858;9.594;2024-03-02T12:00:37;93916.75;;;21.98;33.93
18201;BME280;9226;47.858;9.594;2024-03-02T12:03:07;93915.00;;;22.15;35.34
18201;BME280;9226;47.858;9.594;2024-03-02T12:05:34;93908.81;;;21.61;36.08
18201;BME280;9226;47.858;9.594;2024-03-02T12:08:02;93906.59;;;21.39;35.97
18201;BME280;9226;47.858;9.594;2024-03-02T12:10:28;93903.53;;;21.24;36.74
18201;BME280;9226;47.858;9.594;2024-03-02T12:13:02;93906.25;;;20.87;39.54
18201;BME280;9226;47.858;9.594;2024-03-02T12:15:30;93886.88;;;20.59;40.66
18201;BME280;9226;47.858;9.594;2024-03-02T12:17:57;93894.13;;;20.40;39.79
18201;BME280;9226;47.858;9.594;2024-03-02T12:20:24;93878.84;;;20.34;40.48
18201;BME280;9226;47.858;9.594;2024-03-02T12:22:53;93876.59;;;19.87;40.63
18201;BME280;9226;47.858;9.594;2024-03-02T12:25:23;93879.09;;;18.93;41.21
18201;BME280;9226;47.858;9.594;2024-03-02T12:27:51;93873.31;;;18.96;41.49
18201;BME280;9226;47.858;9.594;2024-03-02T12:30:18;93876.28;;;18.68;42.24
18201;BME280;9226;47.858;9.594;2024-03-02T12:32:46;93874.31;;;18.43;42.00
18201;BME280;9226;47.858;9.594;2024-03-02T12:35:13;93862.25;;;18.59;42.69
18201;BME280;9226;47.858;9.594;2024-03-02T12:37:46;93858.69;;;18.20;42.48
18201;BME280;9226;47.858;9.594;2024-03-02T12:40:12;93855.03;;;17.88;42.42
18201;BME280;9226;47.858;9.594;2024-03-02T12:42:41;93847.38;;;17.25;43.44
18201;BME280;9226;47.858;9.594;2024-03-02T12:45:09;93850.47;;;17.28;44.18
18201;BME280;9226;47.858;9.594;2024-03-02T12:47:35;93847.13;;;16.86;45.52
18201;BME280;9226;47.858;9.594;2024-03-02T12:50:02;93841.94;;;16.78;44.93
18201;BME280;9226;47.858;9.594;2024-03-02T12:52:28;93845.22;;;16.18;45.06
18201;BME280;9226;47.858;9.594;2024-03-02T12:54:53;93835.97;;;16.21;45.43
18201;BME280;9226;47.858;9.594;2024-03-02T12:57:25;93838.81;;;15.78;46.03
18201;BME280;9226;47.858;9.594;2024-03-02T12:59:52;93833.69;;;16.18;46.00
18201;BME280;9226;47.858;9.594;2024-03-02T13:02:17;93841.50;;;15.84;46.35
18201;BME280;9226;47.858;9.594;2024-03-02T13:04:43;93833.50;;;15.56;46.59
18201;BME280;9226;47.858;9.594;2024-03-02T13:07:10;93831.34;;;15.73;46.01
18201;BME280;9226;47.858;9.594;2024-03-02T13:09:39;93834.66;;;15.75;45.43
18201;BME280;9226;47.858;9.594;2024-03-02T13:12:05;93815.56;;;15.50;43.34
18201;BME280;9226;47.858;9.594;2024-03-02T13:14:33;93814.22;;;15.32;43.75
18201;BME280;9226;47.858;9.594;2024-03-02T13:17:00;93812.44;;;15.18;43.85